createdAt,value
2018-07-09T00:01:29.402Z,61.80
2018-07-09T00:03:58.010Z,61.70
2018-07-09T00:06:26.513Z,61.60
2018-07-09T00:08:55.013Z,61.30
2018-07-09T00:11:23.474Z,60.90
2018-07-09T00:13:52.262Z,62.20
2018-07-09T00:16:20.758Z,62.50
2018-07-09T00:18:49.233Z,63.60
2018-07-09T00:21:17.806Z,64.20
2018-07-09T00:23:46.494Z,65.10
2018-07-09T00:26:14.988Z,65.20
2018-07-09T00:28:43.477Z,65.30
2018-07-09T00:31:11.961Z,65.90
2018-07-09T00:33:40.413Z,65.50
2018-07-09T00:36:08.915Z,65.50
2018-07-09T00:38:37.445Z,64.70
2018-07-09T00:41:06.201Z,65.20
2018-07-09T00:46:03.677Z,63.70
2018-07-09T00:48:32.221Z,63.20
2018-07-09T00:51:00.760Z,63.60
2018-07-09T00:53:29.250Z,64.20
2018-07-09T00:55:57.709Z,64.60
2018-07-09T00:58:26.202Z,65.00
2018-07-09T01:00:54.765Z,64.40
2018-07-09T01:03:23.249Z,64.20
2018-07-09T01:05:51.776Z,64.00
2018-07-09T01:08:20.305Z,63.80
2018-07-09T01:11:00.002Z,63.30
2018-07-09T01:13:43.900Z,63.30
2018-07-09T01:16:12.673Z,63.40
2018-07-09T01:18:41.662Z,63.60
2018-07-09T01:21:13.867Z,64.00
2018-07-09T01:23:42.450Z,65.30
2018-07-09T01:26:10.921Z,65.70
2018-07-09T01:28:40.669Z,65.50
2018-07-09T01:31:09.174Z,65.00
2018-07-09T01:33:37.625Z,65.30
2018-07-09T01:36:06.133Z,66.60
2018-07-09T01:38:34.854Z,67.00
2018-07-09T01:41:03.349Z,66.60
2018-07-09T01:43:31.813Z,66.60
2018-07-09T01:46:00.296Z,65.60
2018-07-09T01:48:28.772Z,66.00
2018-07-09T01:50:57.272Z,65.90
2018-07-09T01:53:25.760Z,65.70
2018-07-09T01:55:54.237Z,65.50
2018-07-09T01:58:22.693Z,65.10
2018-07-09T02:00:51.165Z,64.70
2018-07-09T02:03:20.161Z,64.60
2018-07-09T02:05:48.676Z,64.20
2018-07-09T02:08:17.245Z,63.70
2018-07-09T02:10:45.713Z,63.10
2018-07-09T02:13:14.201Z,63.20
2018-07-09T02:15:42.672Z,62.90
2018-07-09T02:18:11.161Z,63.00
2018-07-09T02:20:39.617Z,62.90
2018-07-09T02:23:08.097Z,62.90
2018-07-09T02:25:36.585Z,63.10
2018-07-09T02:28:05.122Z,63.60
2018-07-09T02:30:33.606Z,63.70
2018-07-09T02:33:02.061Z,63.60
2018-07-09T02:35:30.534Z,63.10
2018-07-09T02:37:59.018Z,63.40
2018-07-09T02:40:27.493Z,64.00
2018-07-09T02:42:55.960Z,63.80
2018-07-09T02:45:24.451Z,63.60
2018-07-09T02:47:52.901Z,63.30
2018-07-09T02:50:21.369Z,63.70
2018-07-09T02:52:49.838Z,63.60
2018-07-09T02:55:18.313Z,63.90
2018-07-09T02:57:46.813Z,64.60
2018-07-09T03:00:15.309Z,65.40
2018-07-09T03:02:43.825Z,65.90
2018-07-09T03:05:12.337Z,65.70
2018-07-09T03:07:40.825Z,65.60
2018-07-09T03:10:09.301Z,65.40
2018-07-09T03:12:37.753Z,65.30
2018-07-09T03:15:06.313Z,65.40
2018-07-09T03:17:34.773Z,66.10
2018-07-09T03:20:03.323Z,65.90
2018-07-09T03:22:31.806Z,66.10
2018-07-09T03:25:00.313Z,67.10
2018-07-09T03:27:28.794Z,66.90
2018-07-09T03:29:57.284Z,67.80
2018-07-09T03:32:25.742Z,68.60
2018-07-09T03:34:54.205Z,69.50
2018-07-09T03:37:22.670Z,70.60
2018-07-09T03:39:51.141Z,71.70
2018-07-09T03:42:19.929Z,73.10
2018-07-09T03:44:48.488Z,73.40
2018-07-09T03:47:16.982Z,73.40
2018-07-09T03:49:45.538Z,72.10
2018-07-09T03:52:14.037Z,71.20
2018-07-09T03:54:42.527Z,71.00
2018-07-09T03:57:10.990Z,70.30
2018-07-09T03:59:39.451Z,69.80
2018-07-09T04:02:07.961Z,69.60
2018-07-09T04:04:36.417Z,69.90
2018-07-09T04:07:05.025Z,70.50
2018-07-09T04:09:33.486Z,72.20
2018-07-09T04:12:01.955Z,73.90
2018-07-09T04:14:30.445Z,74.50
2018-07-09T04:16:58.913Z,75.20
2018-07-09T04:19:27.381Z,76.00
2018-07-09T04:21:56.054Z,77.20
2018-07-09T04:24:24.561Z,77.30
2018-07-09T04:26:53.313Z,77.00
2018-07-09T04:29:21.769Z,75.60
2018-07-09T04:31:50.337Z,74.40
2018-07-09T04:34:18.762Z,73.60
2018-07-09T04:39:15.541Z,71.60
2018-07-09T04:41:44.941Z,69.40
2018-07-09T04:44:13.408Z,68.00
2018-07-09T04:46:41.954Z,67.80
2018-07-09T04:49:10.473Z,68.30
2018-07-09T04:51:38.970Z,68.40
2018-07-09T04:54:07.450Z,68.40
2018-07-09T04:56:35.916Z,69.20
2018-07-09T04:59:04.430Z,70.90
2018-07-09T05:01:32.890Z,72.20
2018-07-09T05:04:01.365Z,71.80
2018-07-09T05:06:29.853Z,71.00
2018-07-09T05:08:58.325Z,70.60
2018-07-09T05:11:26.789Z,70.60
2018-07-09T05:13:55.249Z,68.70
2018-07-09T05:16:23.773Z,67.90
2018-07-09T05:18:52.252Z,67.20
2018-07-09T05:23:48.957Z,67.60
2018-07-09T05:26:17.437Z,67.60
2018-07-09T05:28:45.897Z,67.60
2018-07-09T05:31:14.353Z,68.10
2018-07-09T05:33:42.842Z,68.10
2018-07-09T05:36:11.354Z,68.60
2018-07-09T05:38:39.878Z,68.30
2018-07-09T05:41:08.397Z,68.30
2018-07-09T05:43:37.465Z,68.40
2018-07-09T05:46:06.874Z,68.50
2018-07-09T05:48:35.793Z,68.90
2018-07-09T05:51:04.425Z,68.80
2018-07-09T05:53:32.921Z,68.80
2018-07-09T05:56:01.406Z,66.50
2018-07-09T05:58:29.869Z,64.80
2018-07-09T06:00:58.917Z,65.20
2018-07-09T06:03:27.431Z,64.70
2018-07-09T06:05:55.925Z,64.70
2018-07-09T06:08:24.431Z,65.10
2018-07-09T06:10:52.897Z,63.40
2018-07-09T06:13:21.397Z,62.00
2018-07-09T06:15:49.894Z,62.30
2018-07-09T06:18:18.365Z,62.20
2018-07-09T06:20:46.869Z,62.00
2018-07-09T06:23:15.374Z,60.90
2018-07-09T06:25:43.883Z,61.60
2018-07-09T06:28:12.357Z,61.90
2018-07-09T06:30:40.944Z,61.10
2018-07-09T06:33:09.430Z,61.20
2018-07-09T06:35:37.971Z,61.10
2018-07-09T06:38:06.637Z,61.10
2018-07-09T06:40:35.130Z,61.10
2018-07-09T06:43:03.681Z,61.30
2018-07-09T06:45:32.129Z,60.90
2018-07-09T06:48:00.738Z,60.40
2018-07-09T06:50:29.230Z,60.50
2018-07-09T06:52:57.704Z,59.80
2018-07-09T06:55:26.167Z,59.90
2018-07-09T06:57:54.677Z,60.40
2018-07-09T07:00:23.163Z,59.70
2018-07-09T07:02:51.706Z,59.90
2018-07-09T07:05:20.693Z,59.50
2018-07-09T07:07:49.174Z,59.10
2018-07-09T07:10:17.661Z,59.70
2018-07-09T07:12:46.217Z,59.20
2018-07-09T07:15:14.701Z,59.60
2018-07-09T07:17:43.185Z,59.20
2018-07-09T07:20:11.717Z,58.70
2018-07-09T07:22:40.192Z,57.90
2018-07-09T07:25:08.693Z,57.10
2018-07-09T07:27:37.586Z,57.50
2018-07-09T07:30:06.123Z,58.00
2018-07-09T07:32:34.709Z,58.20
2018-07-09T07:35:03.258Z,58.30
2018-07-09T07:37:32.425Z,58.90
2018-07-09T07:40:01.009Z,58.60
2018-07-09T07:42:30.029Z,58.00
2018-07-09T07:44:58.524Z,57.60
2018-07-09T07:47:27.040Z,57.30
2018-07-09T07:49:55.528Z,57.10
2018-07-09T07:52:24.054Z,56.90
2018-07-09T07:54:52.537Z,57.00
2018-07-09T07:57:21.041Z,55.90
2018-07-09T07:59:49.611Z,56.00
2018-07-09T08:02:18.181Z,55.60
2018-07-09T08:04:46.713Z,55.00
2018-07-09T08:07:15.181Z,55.20
2018-07-09T08:09:43.708Z,55.00
2018-07-09T08:13:00.533Z,55.10
2018-07-09T08:14:40.674Z,55.00
2018-07-09T08:17:09.223Z,53.50
2018-07-09T08:19:37.689Z,53.50
2018-07-09T08:22:06.221Z,53.10
2018-07-09T08:24:34.683Z,52.80
2018-07-09T08:27:03.171Z,53.40
2018-07-09T08:29:31.674Z,53.50
2018-07-09T08:32:00.122Z,53.20
2018-07-09T08:41:15.541Z,52.10
2018-07-09T08:43:44.018Z,50.80
2018-07-09T08:46:12.525Z,51.00
2018-07-09T08:51:09.226Z,49.80
2018-07-09T08:53:37.789Z,49.30
2018-07-09T08:56:06.327Z,49.00
2018-07-09T08:58:34.798Z,49.10
2018-07-09T09:01:03.442Z,49.70
2018-07-09T09:03:31.975Z,48.90
2018-07-09T09:06:00.581Z,48.80
2018-07-09T09:08:29.045Z,47.70
2018-07-09T09:12:26.961Z,48.10
2018-07-09T09:14:55.415Z,48.40
2018-07-09T09:17:23.873Z,48.50
2018-07-09T09:19:52.405Z,48.50
2018-07-09T09:22:20.962Z,48.20
2018-07-09T09:24:49.482Z,46.80
2018-07-09T09:27:17.981Z,46.50
2018-07-09T09:29:46.474Z,47.70
2018-07-09T09:32:15.045Z,48.10
2018-07-09T09:34:43.534Z,47.90
2018-07-09T09:37:12.054Z,48.40
2018-07-09T09:39:40.573Z,48.60
2018-07-09T09:42:09.082Z,49.60
2018-07-09T09:44:37.557Z,48.80
2018-07-09T09:47:06.057Z,48.50
2018-07-09T09:49:34.722Z,49.30
2018-07-09T09:52:03.341Z,50.00
2018-07-09T09:54:31.844Z,49.70
2018-07-09T09:57:00.325Z,50.20
2018-07-09T09:59:28.809Z,50.10
2018-07-09T10:01:57.286Z,49.60
2018-07-09T10:04:25.787Z,50.10
2018-07-09T10:06:54.292Z,48.70
2018-07-09T10:09:22.755Z,49.70
2018-07-09T10:11:51.218Z,48.60
2018-07-09T10:14:19.714Z,47.90
2018-07-09T10:16:48.305Z,49.40
2018-07-09T10:19:16.753Z,49.80
2018-07-09T10:21:45.300Z,49.00
2018-07-09T10:24:13.821Z,49.00
2018-07-09T10:26:42.312Z,49.50
2018-07-09T10:29:10.827Z,50.10
2018-07-09T10:31:39.321Z,50.80
2018-07-09T10:34:07.780Z,51.50
2018-07-09T10:36:36.270Z,50.70
2018-07-09T10:39:05.509Z,51.30
2018-07-09T10:41:34.013Z,51.10
2018-07-09T10:44:02.506Z,51.30
2018-07-09T10:46:30.989Z,51.30
2018-07-09T10:48:59.480Z,50.50
2018-07-09T10:51:28.229Z,51.20
2018-07-09T10:53:56.709Z,51.80
2018-07-09T10:56:25.183Z,52.70
2018-07-09T10:58:53.825Z,53.30
2018-07-09T11:01:22.345Z,54.10
2018-07-09T11:03:50.857Z,55.70
2018-07-09T11:08:47.525Z,58.30
2018-07-09T11:11:15.981Z,59.20
2018-07-09T11:13:44.490Z,59.40
2018-07-09T11:16:12.993Z,59.80
2018-07-09T11:18:41.492Z,60.10
2018-07-09T11:21:10.002Z,60.20
2018-07-09T11:23:38.496Z,60.60
2018-07-09T11:26:07.519Z,61.30
2018-07-09T11:28:36.035Z,61.20
2018-07-09T11:31:04.588Z,62.10
2018-07-09T11:33:33.037Z,62.40
2018-07-09T11:36:01.554Z,62.20
2018-07-09T11:38:30.058Z,61.80
2018-07-09T11:40:58.798Z,60.50
2018-07-09T11:43:27.283Z,60.40
2018-07-09T11:45:55.821Z,59.80
2018-07-09T11:48:24.297Z,59.40
2018-07-09T11:50:52.789Z,57.40
2018-07-09T11:53:21.274Z,57.30
2018-07-09T11:55:49.845Z,57.70
2018-07-09T11:58:18.325Z,58.90
2018-07-09T12:00:46.806Z,59.10
2018-07-09T12:03:15.289Z,56.30
2018-07-09T12:05:43.782Z,55.50
2018-07-09T12:08:12.278Z,55.60
2018-07-09T12:13:08.982Z,53.40
2018-07-09T12:15:37.609Z,53.50
2018-07-09T12:18:06.153Z,53.30
2018-07-09T12:20:34.637Z,51.90
2018-07-09T12:23:03.113Z,50.70
2018-07-09T12:25:31.605Z,50.50
2018-07-09T12:28:00.178Z,50.50
2018-07-09T12:30:28.691Z,50.10
2018-07-09T12:32:57.154Z,49.10
2018-07-09T12:35:25.694Z,48.10
2018-07-09T12:37:54.162Z,47.70
2018-07-09T12:42:50.810Z,48.00
2018-07-09T12:45:19.293Z,47.10
2018-07-09T12:47:47.777Z,44.80
2018-07-09T12:50:16.261Z,43.90
2018-07-09T12:52:44.813Z,44.70
2018-07-09T12:55:13.293Z,45.50
2018-07-09T12:57:41.809Z,45.80
2018-07-09T13:00:10.438Z,45.20
2018-07-09T13:02:39.173Z,44.80
2018-07-09T13:05:07.739Z,44.20
2018-07-09T13:07:36.577Z,42.90
2018-07-09T13:10:05.991Z,42.90
2018-07-09T13:12:34.471Z,42.60
2018-07-09T13:15:02.988Z,40.40
2018-07-09T13:17:31.480Z,41.20
2018-07-09T13:20:00.110Z,40.40
2018-07-09T13:22:28.561Z,40.80
2018-07-09T13:24:57.069Z,42.40
2018-07-09T13:27:25.609Z,43.20
2018-07-09T13:29:54.529Z,43.70
2018-07-09T13:32:23.038Z,44.20
2018-07-09T13:34:51.633Z,44.10
2018-07-09T13:37:20.134Z,45.00
2018-07-09T13:39:48.719Z,45.20
2018-07-09T13:42:17.257Z,45.30
2018-07-09T13:44:45.785Z,45.30
2018-07-09T13:47:14.412Z,45.90
2018-07-09T13:49:43.365Z,45.90
2018-07-09T13:52:11.978Z,46.40
2018-07-09T13:54:40.511Z,47.00
2018-07-09T13:57:09.013Z,47.10
2018-07-09T13:59:37.607Z,47.10
2018-07-09T14:02:06.081Z,46.80
2018-07-09T14:04:34.532Z,47.30
2018-07-09T14:07:03.060Z,47.10
2018-07-09T14:09:31.573Z,47.30
2018-07-09T14:12:00.073Z,47.60
2018-07-09T14:14:28.553Z,48.00
2018-07-09T14:16:57.045Z,48.10
2018-07-09T14:20:42.089Z,48.70
2018-07-09T14:23:11.990Z,49.00
2018-07-09T14:28:08.945Z,48.50
2018-07-09T14:30:37.535Z,48.70
2018-07-09T14:33:06.429Z,48.60
2018-07-09T14:35:35.097Z,49.10
2018-07-09T14:38:03.602Z,48.80
2018-07-09T14:43:00.245Z,49.10
2018-07-09T14:45:28.713Z,48.90
2018-07-09T14:47:57.243Z,49.20
2018-07-09T14:50:25.721Z,48.80
2018-07-09T14:52:54.649Z,48.40
2018-07-09T14:55:23.134Z,45.80
2018-07-09T14:57:51.693Z,46.80
2018-07-09T15:00:20.189Z,47.30
2018-07-09T15:02:48.728Z,47.40
2018-07-09T15:05:17.227Z,47.40
2018-07-09T15:07:45.713Z,47.80
2018-07-09T15:10:14.273Z,48.60
2018-07-09T15:12:42.773Z,48.80
2018-07-09T15:15:11.264Z,48.50
2018-07-09T15:17:39.767Z,49.70
2018-07-09T15:20:08.426Z,49.20
2018-07-09T15:22:36.965Z,49.10
2018-07-09T15:25:05.565Z,49.20
2018-07-09T15:27:34.045Z,49.70
2018-07-09T15:30:02.522Z,49.70
2018-07-09T15:32:31.937Z,49.70
2018-07-09T15:37:29.530Z,49.40
2018-07-09T15:39:58.095Z,49.00
2018-07-09T15:42:26.634Z,49.40
2018-07-09T15:44:55.067Z,49.30
2018-07-09T15:47:23.533Z,48.30
2018-07-09T15:49:52.010Z,47.10
2018-07-09T15:52:20.517Z,45.70
2018-07-09T15:54:49.041Z,44.90
2018-07-09T15:57:17.514Z,44.90
2018-07-09T15:59:46.032Z,46.20
2018-07-09T16:02:14.533Z,46.30
2018-07-09T16:04:43.009Z,46.90
2018-07-09T16:07:11.502Z,45.70
2018-07-09T16:09:39.966Z,46.10
2018-07-09T16:12:08.530Z,46.10
2018-07-09T16:14:37.054Z,46.60
2018-07-09T16:17:05.649Z,47.00
2018-07-09T16:19:34.213Z,46.40
2018-07-09T16:22:02.718Z,47.10
2018-07-09T16:24:31.188Z,48.50
2018-07-09T16:26:59.640Z,49.10
2018-07-09T16:31:56.341Z,49.50
2018-07-09T16:34:24.887Z,49.70
2018-07-09T16:36:53.461Z,49.50
2018-07-09T16:39:21.978Z,49.90
2018-07-09T16:41:50.459Z,49.50
2018-07-09T16:44:18.940Z,49.50
2018-07-09T16:46:47.532Z,49.80
2018-07-09T16:49:15.986Z,49.60
2018-07-09T16:51:45.353Z,50.00
2018-07-09T16:54:13.833Z,49.90
2018-07-09T16:56:42.409Z,49.70
2018-07-09T16:59:10.909Z,49.70
2018-07-09T17:01:39.393Z,50.10
2018-07-09T17:04:07.989Z,50.50
2018-07-09T17:06:36.465Z,50.60
2018-07-09T17:09:05.666Z,51.10
2018-07-09T17:11:34.157Z,51.40
2018-07-09T17:14:02.621Z,51.60
2018-07-09T17:16:31.097Z,52.00
2018-07-09T17:18:59.613Z,52.10
2018-07-09T17:21:28.074Z,52.50
2018-07-09T17:23:56.587Z,53.80
2018-07-09T17:26:25.184Z,55.80
2018-07-09T17:28:53.641Z,55.20
2018-07-09T17:31:22.209Z,55.30
2018-07-09T17:33:50.677Z,55.70
2018-07-09T17:41:15.541Z,55.70
2018-07-09T17:43:44.058Z,56.30
2018-07-09T17:46:12.543Z,56.50
2018-07-09T17:48:41.002Z,55.10
2018-07-09T17:51:09.540Z,54.70
2018-07-09T17:53:38.074Z,55.30
2018-07-09T17:56:06.605Z,55.30
2018-07-09T17:58:35.070Z,55.60
2018-07-09T18:01:03.566Z,55.80
2018-07-09T18:03:32.106Z,56.20
2018-07-09T18:06:00.636Z,56.20
2018-07-09T18:08:29.337Z,55.90
2018-07-09T18:10:57.809Z,55.80
2018-07-09T18:13:26.269Z,55.40
2018-07-09T18:15:54.746Z,55.30
2018-07-09T18:18:23.233Z,55.30
2018-07-09T18:20:51.720Z,55.20
2018-07-09T18:23:20.225Z,55.10
2018-07-09T18:25:48.681Z,55.40
2018-07-09T18:28:17.173Z,55.40
2018-07-09T18:30:45.714Z,55.90
2018-07-09T18:33:14.223Z,55.70
2018-07-09T18:35:42.791Z,55.80
2018-07-09T18:38:11.211Z,55.90
2018-07-09T18:40:39.711Z,56.00
2018-07-09T18:43:08.185Z,56.10
2018-07-09T18:45:36.714Z,56.10
2018-07-09T18:48:05.405Z,56.40
2018-07-09T18:50:33.964Z,56.60
2018-07-09T18:53:02.431Z,56.60
2018-07-09T18:55:30.902Z,56.60
2018-07-09T18:57:59.362Z,56.70
2018-07-09T19:00:27.885Z,56.60
2018-07-09T19:02:56.413Z,56.70
2018-07-09T19:06:39.197Z,56.70
2018-07-09T19:09:07.721Z,57.10
2018-07-09T19:11:36.374Z,56.70
2018-07-09T19:14:04.866Z,56.80
2018-07-09T19:17:42.394Z,57.00
2018-07-09T19:21:22.966Z,57.40
2018-07-09T19:23:50.752Z,56.50
2018-07-09T19:26:18.177Z,56.10
2018-07-09T19:31:13.109Z,57.80
2018-07-09T19:33:41.108Z,58.30
2018-07-09T19:36:08.613Z,58.60
2018-07-09T19:38:36.625Z,59.10
2018-07-09T19:41:04.250Z,59.50
2018-07-09T19:43:31.585Z,59.90
2018-07-09T19:45:59.106Z,59.90
2018-07-09T19:48:26.541Z,59.90
2018-07-09T19:50:53.870Z,60.30
2018-07-09T19:53:21.183Z,60.40
2018-07-09T19:55:48.513Z,60.70
2018-07-09T19:58:15.843Z,61.10
2018-07-09T20:03:11.566Z,62.50
2018-07-09T20:05:38.894Z,63.60
2018-07-09T20:08:07.009Z,64.70
2018-07-09T20:10:39.615Z,65.30
2018-07-09T20:14:14.379Z,66.10
2018-07-09T20:16:47.110Z,66.50
2018-07-09T20:19:14.446Z,67.20
2018-07-09T20:21:41.797Z,68.50
2018-07-09T20:24:09.137Z,67.80
2018-07-09T20:26:36.457Z,68.20
2018-07-09T20:29:03.800Z,68.40
2018-07-09T20:31:31.137Z,68.30
2018-07-09T20:33:58.450Z,68.10
2018-07-09T20:36:25.761Z,68.20
2018-07-09T20:38:53.096Z,68.20
2018-07-09T20:41:20.437Z,68.20
2018-07-09T20:43:47.770Z,68.30
2018-07-09T20:46:15.108Z,68.60
2018-07-09T20:48:42.462Z,68.00
2018-07-09T20:51:09.794Z,67.60
2018-07-09T20:53:37.113Z,67.00
2018-07-09T20:56:04.447Z,66.90
2018-07-09T20:58:31.763Z,66.70
2018-07-09T21:00:59.081Z,66.70
2018-07-09T21:03:26.413Z,67.20
2018-07-09T21:05:53.729Z,67.60
2018-07-09T21:08:21.032Z,67.40
2018-07-09T21:10:48.392Z,65.80
2018-07-09T21:13:15.734Z,65.30
2018-07-09T21:15:43.090Z,64.50
2018-07-09T21:18:10.418Z,64.00
2018-07-09T21:20:37.731Z,63.60
2018-07-09T21:23:05.045Z,63.40
2018-07-09T21:25:32.373Z,63.90
2018-07-09T21:27:59.708Z,65.00
2018-07-09T21:30:27.025Z,66.50
2018-07-09T21:32:54.383Z,67.20
2018-07-09T21:37:49.593Z,67.50
2018-07-09T21:40:16.764Z,68.10
2018-07-09T21:42:44.076Z,68.30
2018-07-09T21:45:11.436Z,67.30
2018-07-09T21:47:38.754Z,64.20
2018-07-09T21:50:06.070Z,62.80
2018-07-09T21:52:33.406Z,62.50
2018-07-09T21:55:00.730Z,62.40
2018-07-09T21:57:28.094Z,62.40
2018-07-09T21:59:55.465Z,62.90
2018-07-09T22:02:22.773Z,62.60
2018-07-09T22:04:50.295Z,63.00
2018-07-09T22:07:17.633Z,62.40
2018-07-09T22:09:44.973Z,62.60
2018-07-09T22:12:12.281Z,62.50
2018-07-09T22:14:39.609Z,62.30
2018-07-09T22:17:06.946Z,61.80
2018-07-09T22:19:34.290Z,61.60
2018-07-09T22:22:01.601Z,61.60
2018-07-09T22:24:28.934Z,61.30
2018-07-09T22:26:56.260Z,61.50
2018-07-09T22:29:23.597Z,60.60
2018-07-09T22:31:52.109Z,60.80
2018-07-09T22:34:20.572Z,61.10
2018-07-09T22:36:49.017Z,61.60
2018-07-09T22:39:17.509Z,61.00
2018-07-09T22:41:45.997Z,61.50
2018-07-09T22:44:18.156Z,61.20
2018-07-09T22:46:46.993Z,61.00
2018-07-09T22:49:15.480Z,61.00
2018-07-09T22:51:43.986Z,61.10
2018-07-09T22:56:40.621Z,60.90
2018-07-09T22:59:09.141Z,60.80
2018-07-09T23:01:37.612Z,60.80
2018-07-09T23:04:06.085Z,62.10
2018-07-09T23:06:34.537Z,63.20
2018-07-09T23:09:18.280Z,64.40
2018-07-09T23:12:26.267Z,65.80
2018-07-09T23:17:12.661Z,66.40
2018-07-09T23:21:59.242Z,67.00
2018-07-09T23:24:26.984Z,67.30
2018-07-09T23:26:55.086Z,65.90
2018-07-09T23:29:22.399Z,65.40
2018-07-09T23:31:50.090Z,65.60
2018-07-09T23:34:18.153Z,66.40
2018-07-09T23:36:45.485Z,66.90
2018-07-09T23:39:13.172Z,67.00
2018-07-09T23:41:40.725Z,66.60
2018-07-09T23:44:08.033Z,65.10
2018-07-09T23:46:35.365Z,63.30
2018-07-09T23:49:02.692Z,63.40
2018-07-09T23:51:30.018Z,64.80
2018-07-09T23:53:57.358Z,65.00
2018-07-09T23:58:44.113Z,66.10
